Time;durP1;ratioP1;P1;durP2;ratioP2;P2;SDS_P1;SDS_P2;PMS_P1;PMS_P2;Temp;Humidity;BMP_temperature;BMP_pressure;BME280_temperature;BME280_humidity;BME280_pressure;Samples;Min_cycle;Max_cycle;Signal;HPM_P1;HPM_P2
2023/07/09 00:41:28;;;;;;;5.00;4.40;;;;;;;12.59;64.30;97717.29;102181;1295;635861;-80
2023/07/09 00:43:56;;;;;;;5.60;4.60;;;;;;;12.48;64.44;97720.50;104605;1270;95887;-80
2023/07/09 00:46:24;;;;;;;7.90;4.40;;;;;;;12.41;64.31;97722.60;104566;1267;96821;-80
2023/07/09 00:51:00;;;;;;;7.30;5.00;;;;;;;12.33;64.70;97717.55;102847;1297;636096;-80
2023/07/09 00:53:32;;;;;;;6.30;4.40;;;;;;;12.26;64.85;97716.69;104338;1273;95843;-80
2023/07/09 00:56:09;;;;;;;6.20;4.90;;;;;;;12.21;65.10;97713.46;104265;1283;95921;-81
2023/07/09 00:58:38;;;;;;;6.40;5.70;;;;;;;12.17;65.18;97716.36;104443;1280;100317;-81
2023/07/09 01:01:12;;;;;;;11.80;6.40;;;;;;;12.14;65.19;97715.16;104479;1270;102080;-81
2023/07/09 01:03:53;;;;;;;7.90;5.60;;;;;;;12.10;65.32;97714.25;104056;1286;129250;-80
2023/07/09 01:06:32;;;;;;;6.80;4.80;;;;;;;12.06;65.34;97713.19;104625;1277;95813;-80
2023/07/09 01:09:01;;;;;;;7.20;4.60;;;;;;;12.02;65.25;97714.02;104550;1278;97180;-81
2023/07/09 01:11:30;;;;;;;5.50;4.30;;;;;;;11.96;65.35;97715.55;104822;1264;100525;-80
2023/07/09 01:14:00;;;;;;;6.10;4.80;;;;;;;11.93;65.43;97720.86;104890;1258;102335;-80
2023/07/09 01:16:32;;;;;;;5.50;4.80;;;;;;;11.90;65.53;97722.77;104298;1264;100716;-80
2023/07/09 01:19:00;;;;;;;6.60;5.00;;;;;;;11.87;65.62;97720.69;104584;1264;95848;-80
2023/07/09 01:21:28;;;;;;;5.40;4.70;;;;;;;11.83;65.66;97718.41;104570;1273;97328;-80
2023/07/09 01:23:57;;;;;;;6.90;4.80;;;;;;;11.79;65.63;97718.80;104552;1267;111129;-80
2023/07/09 01:26:28;;;;;;;5.70;4.90;;;;;;;11.74;65.84;97717.85;104316;1269;100243;-81
2023/07/09 01:28:57;;;;;;;7.90;4.20;;;;;;;11.70;65.85;97716.38;104567;1273;98743;-80
2023/07/09 01:31:25;;;;;;;6.30;4.50;;;;;;;11.69;65.92;97712.05;104508;1276;96111;-80
2023/07/09 01:33:53;;;;;;;6.80;4.90;;;;;;;11.67;66.00;97706.89;104789;1260;96660;-80
2023/07/09 01:36:23;;;;;;;7.30;5.00;;;;;;;11.65;66.14;97708.48;104883;1260;101421;-80
2023/07/09 01:38:53;;;;;;;7.00;4.80;;;;;;;11.62;66.19;97707.80;104889;1260;102343;-80
2023/07/09 01:41:22;;;;;;;7.40;5.00;;;;;;;11.58;66.33;97708.03;104718;1273;99032;-80
2023/07/09 01:43:49;;;;;;;7.60;5.20;;;;;;;11.50;66.37;97707.48;104920;1261;96096;-80
2023/07/09 01:46:17;;;;;;;6.40;5.50;;;;;;;11.45;66.60;97709.21;104804;1260;95842;-80
2023/07/09 01:48:45;;;;;;;8.00;5.20;;;;;;;11.44;66.74;97710.13;104815;1261;101424;-80
2023/07/09 01:51:17;;;;;;;6.40;5.10;;;;;;;11.43;66.69;97711.51;104896;1254;102337;-80
2023/07/09 01:53:45;;;;;;;8.10;4.80;;;;;;;11.40;66.84;97710.45;104825;1254;98811;-80
2023/07/09 01:56:13;;;;;;;11.10;5.00;;;;;;;11.36;66.99;97707.59;105063;1257;96098;-80
2023/07/09 01:58:41;;;;;;;6.40;4.70;;;;;;;11.34;66.99;97702.78;105147;1257;96983;-80
2023/07/09 02:01:09;;;;;;;6.30;5.00;;;;;;;11.33;66.96;97704.52;104960;1258;100815;-80
2023/07/09 02:03:37;;;;;;;7.60;5.10;;;;;;;11.31;67.00;97701.83;105040;1258;100170;-80
2023/07/09 02:06:09;;;;;;;5.40;4.90;;;;;;;11.29;67.04;97704.27;105087;1257;100622;-80
2023/07/09 02:08:36;;;;;;;9.20;5.70;;;;;;;11.26;67.18;97706.71;104954;1257;95917;-80
2023/07/09 02:11:04;;;;;;;8.10;5.20;;;;;;;11.22;67.24;97709.02;105115;1257;96793;-80
2023/07/09 02:13:32;;;;;;;6.50;4.60;;;;;;;11.18;67.35;97710.59;104973;1257;101608;-80
2023/07/09 02:16:00;;;;;;;6.40;5.20;;;;;;;11.15;67.33;97709.34;105140;1258;102184;-80
2023/07/09 02:18:29;;;;;;;5.00;4.40;;;;;;;11.13;67.41;97709.37;105371;1276;101202;-80
2023/07/09 02:20:57;;;;;;;5.70;4.90;;;;;;;11.10;67.37;97710.80;105285;1266;97056;-80
2023/07/09 02:23:29;;;;;;;6.70;5.20;;;;;;;11.07;67.41;97713.92;105064;1255;96201;-80
2023/07/09 02:25:56;;;;;;;5.90;5.10;;;;;;;11.05;67.48;97710.13;104775;1270;101812;-80
2023/07/09 02:28:24;;;;;;;7.00;5.00;;;;;;;11.03;67.62;97709.54;105044;1257;102296;-80
2023/07/09 02:30:52;;;;;;;5.90;5.20;;;;;;;11.02;67.65;97710.70;104973;1257;101263;-80
2023/07/09 02:33:20;;;;;;;5.90;4.80;;;;;;;10.98;67.63;97710.11;104908;1267;96543;-80
2023/07/09 02:35:48;;;;;;;6.10;4.80;;;;;;;11.00;67.72;97718.85;105099;1267;95803;-80
2023/07/09 02:38:16;;;;;;;6.20;4.90;;;;;;;10.98;67.73;97718.57;104955;1258;101486;-81
2023/07/09 02:40:43;;;;;;;7.80;4.60;;;;;;;10.95;67.82;97718.06;105174;1257;102081;-80
2023/07/09 02:43:11;;;;;;;7.20;5.20;;;;;;;10.92;67.95;97722.75;104909;1259;100676;-80
2023/07/09 02:45:39;;;;;;;6.50;5.20;;;;;;;10.90;68.04;97731.67;105121;1258;96833;-80
2023/07/09 02:48:06;;;;;;;6.40;4.80;;;;;;;10.88;68.11;97734.65;105087;1257;96207;-81
2023/07/09 02:50:34;;;;;;;6.20;4.70;;;;;;;10.86;68.28;97731.92;105156;1257;99701;-80
2023/07/09 02:53:02;;;;;;;8.00;5.00;;;;;;;10.84;68.30;97733.21;104964;1254;100206;-80
2023/07/09 02:55:30;;;;;;;7.80;5.10;;;;;;;10.82;68.34;97736.94;105075;1266;100704;-81
2023/07/09 02:57:57;;;;;;;7.80;5.30;;;;;;;10.81;68.40;97734.70;104916;1258;95866;-81
2023/07/09 03:00:25;;;;;;;7.00;4.90;;;;;;;10.80;68.58;97737.72;104992;1254;95774;-80
2023/07/09 03:02:53;;;;;;;5.50;4.90;;;;;;;10.77;68.61;97742.11;105102;1257;99801;-80
2023/07/09 03:05:21;;;;;;;10.30;5.20;;;;;;;10.74;68.75;97743.69;105205;1266;102178;-81
2023/07/09 03:07:48;;;;;;;5.40;4.90;;;;;;;10.72;68.82;97743.82;105095;1257;107900;-80
2023/07/09 03:10:17;;;;;;;6.90;5.00;;;;;;;10.71;68.87;97745.19;105042;1257;96190;-80
2023/07/09 03:12:44;;;;;;;7.60;5.20;;;;;;;10.70;68.96;97747.14;105093;1254;95847;-80
2023/07/09 03:15:13;;;;;;;6.10;4.90;;;;;;;10.70;69.05;97749.71;104939;1270;101388;-81
2023/07/09 03:17:40;;;;;;;9.70;5.20;;;;;;;10.70;69.07;97751.66;105084;1254;102123;-80
2023/07/09 03:20:08;;;;;;;6.50;4.80;;;;;;;10.69;69.08;97748.70;104929;1267;98288;-81
2023/07/09 03:22:36;;;;;;;10.00;5.20;;;;;;;10.69;69.14;97749.95;104983;1257;95842;-80
2023/07/09 03:25:04;;;;;;;5.80;5.00;;;;;;;10.70;69.20;97748.26;105119;1275;96014;-80
2023/07/09 03:27:32;;;;;;;5.60;5.00;;;;;;;10.70;69.34;97746.84;105229;1264;101647;-80
2023/07/09 03:30:00;;;;;;;6.80;4.90;;;;;;;10.69;69.59;97750.41;104921;1270;101051;-80
2023/07/09 03:32:28;;;;;;;6.90;5.30;;;;;;;10.68;69.61;97753.61;105134;1266;100518;-80
2023/07/09 03:34:55;;;;;;;6.70;5.50;;;;;;;10.67;69.80;97751.52;105168;1257;96283;-81
2023/07/09 03:37:23;;;;;;;8.00;5.80;;;;;;;10.67;69.83;97749.02;105052;1256;96113;-80
2023/07/09 03:39:51;;;;;;;6.90;5.80;;;;;;;10.68;69.89;97751.77;104994;1257;101507;-80
2023/07/09 03:42:19;;;;;;;9.00;5.90;;;;;;;10.67;69.99;97748.28;105135;1254;102250;-80
2023/07/09 03:44:46;;;;;;;6.20;5.60;;;;;;;10.67;70.05;97750.69;105233;1258;100681;-80
2023/07/09 03:47:14;;;;;;;7.50;5.20;;;;;;;10.67;70.15;97750.56;105166;1267;96111;-80
2023/07/09 03:49:42;;;;;;;8.70;5.50;;;;;;;10.68;70.33;97750.65;105173;1257;95909;-79
2023/07/09 03:52:10;;;;;;;8.10;5.50;;;;;;;10.71;70.45;97748.84;105314;1266;99803;-80
2023/07/09 03:54:38;;;;;;;7.30;5.10;;;;;;;10.74;70.48;97747.23;104837;1260;102479;-80
2023/07/09 03:57:06;;;;;;;7.20;5.40;;;;;;;10.76;70.52;97747.52;104968;1256;100700;-80
2023/07/09 03:59:34;;;;;;;7.70;6.40;;;;;;;10.80;70.57;97747.83;104759;1260;96139;-80
2023/07/09 04:02:03;;;;;;;9.00;6.90;;;;;;;10.83;70.59;97748.33;105039;1257;96034;-79
2023/07/09 04:04:30;;;;;;;9.50;6.20;;;;;;;10.86;70.67;97747.34;105148;1260;100035;-80
2023/07/09 04:06:58;;;;;;;9.40;6.50;;;;;;;10.90;70.81;97749.20;104980;1266;103037;-79
2023/07/09 04:09:26;;;;;;;8.80;6.50;;;;;;;10.93;70.84;97749.59;104983;1258;100879;-79
2023/07/09 04:11:53;;;;;;;9.60;6.50;;;;;;;10.96;70.87;97748.31;105151;1257;95895;-80
2023/07/09 04:14:21;;;;;;;9.50;7.70;;;;;;;11.01;70.79;97750.19;105054;1257;95832;-79
2023/07/09 04:16:49;;;;;;;10.60;8.40;;;;;;;11.05;71.05;97742.09;105003;1257;101717;-79
2023/07/09 04:19:16;;;;;;;10.20;8.10;;;;;;;11.09;71.19;97746.34;105021;1257;100010;-80
2023/07/09 04:21:44;;;;;;;14.40;9.20;;;;;;;11.14;71.23;97744.58;105097;1267;100659;-79
2023/07/09 04:24:12;;;;;;;10.10;7.50;;;;;;;11.19;71.22;97744.68;105045;1257;95810;-79
2023/07/09 04:26:40;;;;;;;10.00;7.40;;;;;;;11.25;71.19;97745.80;105144;1257;95841;-80
2023/07/09 04:29:07;;;;;;;11.20;7.30;;;;;;;11.32;71.11;97747.77;105002;1258;99705;-79
2023/07/09 04:31:35;;;;;;;8.80;7.30;;;;;;;11.40;71.10;97745.14;105023;1257;110994;-80
2023/07/09 04:34:03;;;;;;;11.20;7.90;;;;;;;11.46;71.11;97742.27;105038;1258;100845;-80
2023/07/09 04:36:31;;;;;;;13.20;8.00;;;;;;;11.54;71.13;97740.98;104995;1271;96111;-79
2023/07/09 04:38:59;;;;;;;12.80;7.50;;;;;;;11.62;71.20;97743.00;105136;1256;96565;-80
2023/07/09 04:41:26;;;;;;;8.90;7.30;;;;;;;11.69;71.30;97741.42;105045;1256;109237;-79
2023/07/09 04:43:54;;;;;;;6.80;5.80;;;;;;;11.76;71.27;97745.83;105013;1257;102058;-80
2023/07/09 04:46:22;;;;;;;8.90;6.60;;;;;;;11.83;71.21;97746.66;105068;1272;107752;-80
2023/07/09 04:48:49;;;;;;;6.00;5.30;;;;;;;11.90;71.16;97744.61;105206;1253;96011;-80
2023/07/09 04:51:17;;;;;;;7.70;7.00;;;;;;;11.98;71.24;97738.05;105001;1257;95895;-80
2023/07/09 04:53:45;;;;;;;8.40;7.10;;;;;;;12.04;71.23;97741.67;105169;1267;102094;-80
2023/07/09 04:56:12;;;;;;;12.80;9.20;;;;;;;12.10;71.38;97744.06;105066;1258;99906;-80
2023/07/09 04:58:40;;;;;;;8.00;7.10;;;;;;;12.17;71.41;97743.46;104997;1257;98873;-79
2023/07/09 05:01:08;;;;;;;8.20;7.20;;;;;;;12.25;71.16;97739.81;105011;1257;97490;-80
2023/07/09 05:03:36;;;;;;;10.50;6.40;;;;;;;12.35;71.27;97739.90;105236;1256;97741;-81
2023/07/09 05:06:05;;;;;;;9.10;6.40;;;;;;;12.43;71.08;97739.61;105072;1267;102825;-80
2023/07/09 05:08:33;;;;;;;7.30;5.90;;;;;;;12.52;70.96;97739.16;105286;1256;109750;-80
2023/07/09 05:11:00;;;;;;;7.60;6.00;;;;;;;12.61;70.75;97742.18;105259;1256;106740;-80
2023/07/09 05:13:28;;;;;;;6.40;5.80;;;;;;;12.71;70.92;97742.89;105091;1253;97472;-80
2023/07/09 05:15:56;;;;;;;8.50;6.30;;;;;;;12.80;71.24;97742.84;105183;1264;97505;-79
2023/07/09 05:18:24;;;;;;;12.80;8.70;;;;;;;12.89;71.32;97745.05;105056;1256;103101;-80
2023/07/09 05:20:51;;;;;;;14.40;10.20;;;;;;;12.98;71.42;97747.54;105024;1264;100270;-79
2023/07/09 05:23:19;;;;;;;17.80;12.20;;;;;;;13.08;71.56;97750.09;105054;1257;100737;-79
2023/07/09 05:25:47;;;;;;;14.10;10.70;;;;;;;13.17;71.52;97749.42;105053;1267;97438;-79
2023/07/09 05:28:14;;;;;;;12.90;9.40;;;;;;;13.26;71.45;97743.77;105035;1257;97081;-79
2023/07/09 05:30:43;;;;;;;13.30;9.20;;;;;;;13.38;71.09;97740.77;105004;1267;109511;-79
2023/07/09 05:33:11;;;;;;;14.10;9.20;;;;;;;13.47;71.10;97739.77;104634;1275;102346;-79
2023/07/09 05:35:38;;;;;;;9.70;7.90;;;;;;;13.56;71.17;97738.73;104994;1257;99034;-79
2023/07/09 05:38:06;;;;;;;10.80;7.90;;;;;;;13.67;71.07;97739.84;105024;1254;97590;-80
2023/07/09 05:40:34;;;;;;;9.10;7.10;;;;;;;13.77;70.97;97740.16;105000;1257;96484;-80
2023/07/09 05:43:01;;;;;;;7.60;5.80;;;;;;;13.87;70.86;97736.67;105130;1257;103000;-80
2023/07/09 05:45:29;;;;;;;6.40;5.60;;;;;;;13.98;70.75;97738.16;105102;1267;102205;-80
2023/07/09 05:47:59;;;;;;;7.20;5.50;;;;;;;14.10;70.81;97737.04;105025;1257;101012;-80
2023/07/09 05:50:27;;;;;;;8.70;5.90;;;;;;;14.21;70.74;97734.87;105102;1254;97553;-80
2023/07/09 05:52:56;;;;;;;6.20;5.40;;;;;;;14.32;70.58;97731.78;104902;1260;97209;-80
2023/07/09 05:55:24;;;;;;;8.40;5.40;;;;;;;14.43;70.21;97733.76;105044;1257;103019;-80
2023/07/09 05:57:56;;;;;;;5.90;5.40;;;;;;;14.54;70.13;97731.95;105064;1256;100044;-80
2023/07/09 06:00:24;;;;;;;8.00;5.70;;;;;;;14.65;69.98;97729.67;105113;1257;100555;-80
2023/07/09 06:02:52;;;;;;;7.80;6.20;;;;;;;14.76;69.75;97729.93;105029;1254;96773;-80
2023/07/09 06:05:20;;;;;;;6.60;5.80;;;;;;;14.88;69.67;97727.39;105266;1254;97074;-80
2023/07/09 06:07:48;;;;;;;6.30;5.30;;;;;;;15.00;69.58;97733.10;105166;1267;103192;-81
2023/07/09 06:10:16;;;;;;;7.70;5.10;;;;;;;15.10;68.91;97731.37;105356;1254;102246;-80
2023/07/09 06:12:44;;;;;;;7.50;5.00;;;;;;;15.22;68.60;97731.23;105542;1256;98997;-81
2023/07/09 06:15:12;;;;;;;5.70;5.10;;;;;;;15.34;68.51;97727.56;105448;1254;97231;-80
2023/07/09 06:17:40;;;;;;;7.10;5.30;;;;;;;15.46;68.35;97726.79;105564;1253;97141;-80
2023/07/09 06:20:08;;;;;;;6.30;5.30;;;;;;;15.58;68.33;97728.20;105299;1255;103911;-81
2023/07/09 06:22:36;;;;;;;5.90;5.00;;;;;;;15.71;68.32;97723.88;105123;1257;100349;-80
2023/07/09 06:25:04;;;;;;;6.00;5.30;;;;;;;15.84;68.32;97724.19;105135;1254;108716;-80
2023/07/09 06:27:31;;;;;;;7.90;5.10;;;;;;;16.00;68.45;97728.20;104984;1268;96626;-80
2023/07/09 06:29:59;;;;;;;6.50;5.30;;;;;;;16.17;68.41;97724.98;105044;1258;97060;-80
2023/07/09 06:32:27;;;;;;;5.30;4.60;;;;;;;16.31;68.08;97722.08;105071;1266;101920;-81
2023/07/09 06:34:55;;;;;;;6.30;4.40;;;;;;;16.43;67.71;97721.08;105006;1259;102137;-80
2023/07/09 06:37:23;;;;;;;7.30;4.40;;;;;;;16.57;67.60;97720.00;105075;1254;99273;-80
2023/07/09 06:39:50;;;;;;;5.90;5.20;;;;;;;16.73;66.93;97717.63;105125;1253;96634;-80
2023/07/09 06:42:18;;;;;;;5.70;4.60;;;;;;;16.88;66.68;97719.73;104993;1256;99438;-81
2023/07/09 06:44:46;;;;;;;5.90;4.90;;;;;;;17.05;66.55;97718.00;105131;1254;101400;-82
2023/07/09 06:47:13;;;;;;;6.90;4.50;;;;;;;17.19;66.30;97718.77;105191;1256;100071;-81
2023/07/09 06:49:41;;;;;;;7.00;4.90;;;;;;;17.34;66.19;97716.30;105108;1256;100670;-80
2023/07/09 06:52:09;;;;;;;6.00;5.10;;;;;;;17.48;66.02;97716.26;105239;1267;96613;-82
2023/07/09 06:57:38;;;;;;;6.40;5.10;;;;;;;17.76;65.51;97702.97;104911;1256;102944;-80
2023/07/09 07:00:13;;;;;;;5.60;5.00;;;;;;;17.93;65.38;97704.11;104518;1270;100355;-81
2023/07/09 07:02:41;;;;;;;6.20;4.90;;;;;;;18.07;64.91;97704.53;104621;1267;99141;-82
2023/07/09 07:05:09;;;;;;;6.80;4.40;;;;;;;18.22;64.78;97696.85;104367;1265;97823;-81
2023/07/09 07:07:37;;;;;;;5.40;4.40;;;;;;;18.38;64.50;97691.60;104424;1264;97192;-81
2023/07/09 07:10:13;;;;;;;6.70;5.40;;;;;;;18.54;63.97;97689.39;104196;1263;101234;-81
2023/07/09 07:12:45;;;;;;;5.80;4.60;;;;;;;18.70;63.55;97688.79;104249;1269;102288;-80
2023/07/09 07:15:15;;;;;;;6.80;4.60;;;;;;;18.84;63.62;97681.83;104047;1264;99706;-80
2023/07/09 07:18:12;;;;;;;6.10;4.40;;;;;;;19.02;63.57;97688.38;104100;1270;97932;-81
2023/07/09 07:20:46;;;;;;;6.90;4.60;;;;;;;19.19;63.95;97689.08;103976;1274;97371;-80
2023/07/09 07:23:13;;;;;;;5.50;5.00;;;;;;;19.37;63.52;97685.45;103998;1274;102985;-80
2023/07/09 07:25:42;;;;;;;5.90;4.40;;;;;;;19.56;63.30;97682.28;104081;1271;100387;-81
2023/07/09 07:28:16;;;;;;;7.00;4.90;;;;;;;19.71;63.34;97677.33;104248;1264;100093;-81
2023/07/09 07:30:44;;;;;;;6.40;4.50;;;;;;;19.89;63.47;97680.13;104053;1264;96684;-81
2023/07/09 07:33:17;;;;;;;5.50;4.40;;;;;;;20.00;62.90;97676.20;104868;1260;97913;-82
2023/07/09 07:35:44;;;;;;;5.80;4.80;;;;;;;20.20;62.56;97677.51;104904;1257;108916;-82
2023/07/09 07:38:12;;;;;;;6.10;5.10;;;;;;;20.34;62.17;97675.30;104814;1257;100705;-80
2023/07/09 07:40:40;;;;;;;7.60;4.60;;;;;;;20.48;61.13;97675.97;104741;1280;99287;-82
2023/07/09 07:43:07;;;;;;;9.90;5.00;;;;;;;20.63;60.83;97676.40;105088;1262;96781;-81
2023/07/09 07:45:35;;;;;;;5.30;4.80;;;;;;;20.78;60.43;97673.71;104784;1262;97169;-81
2023/07/09 07:48:03;;;;;;;6.10;4.30;;;;;;;20.93;59.90;97670.18;104672;1261;102936;-82
2023/07/09 07:50:30;;;;;;;5.30;4.80;;;;;;;21.10;59.84;97672.47;104698;1260;101604;-81
2023/07/09 07:52:58;;;;;;;6.80;4.70;;;;;;;21.29;59.03;97672.36;105086;1254;98593;-81
2023/07/09 07:55:26;;;;;;;8.00;4.60;;;;;;;21.45;58.37;97668.18;105199;1257;96599;-82
2023/07/09 07:57:53;;;;;;;5.00;4.40;;;;;;;21.65;58.34;97669.55;105154;1254;97067;-83
2023/07/09 08:00:21;;;;;;;4.80;4.30;;;;;;;21.99;58.46;97670.39;105188;1254;110624;-81
2023/07/09 08:02:49;;;;;;;6.60;4.50;;;;;;;22.40;58.28;97664.94;105186;1267;102416;-83
2023/07/09 08:05:17;;;;;;;6.50;3.90;;;;;;;22.90;57.12;97666.27;105189;1256;99412;-82
2023/07/09 08:07:45;;;;;;;7.40;4.30;;;;;;;23.46;56.03;97665.73;105186;1256;96701;-83
2023/07/09 08:10:13;;;;;;;8.90;3.90;;;;;;;24.04;55.08;97664.70;105340;1255;96978;-81
2023/07/09 08:12:41;;;;;;;5.30;3.80;;;;;;;24.62;54.34;97663.73;104969;1274;104012;-81
2023/07/09 08:15:09;;;;;;;3.90;3.60;;;;;;;25.18;53.88;97662.44;104782;1260;102253;-83
2023/07/09 08:17:37;;;;;;;5.10;3.70;;;;;;;25.71;52.58;97665.30;104663;1271;100858;-82
2023/07/09 08:20:05;;;;;;;3.50;3.20;;;;;;;26.23;51.84;97662.38;104675;1261;96750;-83
2023/07/09 08:22:33;;;;;;;3.90;3.50;;;;;;;26.66;50.15;97660.59;104894;1256;97861;-81
2023/07/09 08:25:00;;;;;;;6.60;3.90;;;;;;;27.04;48.49;97658.23;104765;1256;103026;-81
2023/07/09 08:27:28;;;;;;;4.30;3.50;;;;;;;27.42;47.97;97652.74;104718;1260;102260;-82
2023/07/09 08:29:56;;;;;;;4.70;3.40;;;;;;;27.82;47.22;97651.81;104717;1261;99143;-83
2023/07/09 08:32:24;;;;;;;3.50;3.20;;;;;;;28.16;46.35;97651.92;104701;1260;97885;-85
2023/07/09 08:34:51;;;;;;;4.30;3.00;;;;;;;28.41;45.31;97649.52;104670;1270;97239;-84
2023/07/09 08:37:19;;;;;;;7.60;3.60;;;;;;;28.72;44.94;97646.85;104722;1260;103391;-82
2023/07/09 08:39:47;;;;;;;4.80;3.90;;;;;;;29.04;44.79;97648.50;104718;1256;100255;-83
2023/07/09 08:42:17;;;;;;;4.60;3.10;;;;;;;29.32;44.00;97653.03;104652;1257;100812;-84
2023/07/09 08:56:21;;;;;;;2.80;2.60;;;;;;;30.92;38.75;97644.19;105084;1277;641915;-80
2023/07/09 08:58:50;;;;;;;3.60;2.70;;;;;;;31.97;35.29;97643.77;105888;1258;179497;-80
2023/07/09 09:01:27;;;;;;;3.80;2.60;;;;;;;32.20;34.85;97645.23;106411;1252;95886;-79
2023/07/09 09:04:13;;;;;;;3.30;2.60;;;;;;;32.46;33.99;97644.70;107047;1251;98606;-81
2023/07/09 09:06:45;;;;;;;3.10;2.70;;;;;;;32.66;33.72;97643.37;106574;1254;100141;-82
2023/07/09 09:09:33;;;;;;;4.40;2.70;;;;;;;32.81;33.25;97645.65;106943;1248;98897;-80
2023/07/09 09:12:24;;;;;;;2.60;2.40;;;;;;;32.89;32.88;97644.31;106995;1249;96886;-81
2023/07/09 09:15:04;;;;;;;3.20;3.00;;;;;;;33.14;32.86;97644.45;106924;1245;96085;-83
2023/07/09 09:17:35;;;;;;;3.40;2.80;;;;;;;33.38;31.93;97646.47;106915;1251;98484;-81
2023/07/09 09:20:17;;;;;;;3.30;2.70;;;;;;;33.61;31.58;97649.33;106607;1248;100264;-84
2023/07/09 09:22:43;;;;;;;3.70;2.50;;;;;;;33.85;31.03;97641.88;106122;1257;98868;-81
2023/07/09 09:25:23;;;;;;;3.10;2.90;;;;;;;34.04;30.57;97642.23;107276;1248;95871;-81
2023/07/09 09:27:50;;;;;;;3.30;2.70;;;;;;;34.26;30.18;97644.77;107266;1242;97176;-82
2023/07/09 09:30:20;;;;;;;4.00;3.00;;;;;;;34.36;30.12;97645.02;107450;1246;96527;-81
2023/07/09 09:32:54;;;;;;;4.10;2.80;;;;;;;34.21;29.88;97648.70;107222;1244;100031;-81
2023/07/09 09:35:33;;;;;;;3.10;2.80;;;;;;;34.29;29.68;97647.34;107402;1242;98330;-81
2023/07/09 09:38:00;;;;;;;3.90;2.90;;;;;;;34.38;29.62;97642.23;107548;1241;96297;-82
2023/07/09 09:40:33;;;;;;;4.70;3.10;;;;;;;34.43;28.75;97646.88;107374;1242;95910;-81
2023/07/09 09:43:00;;;;;;;5.40;3.00;;;;;;;34.42;28.78;97643.51;106647;1253;99290;-83
2023/07/09 09:45:33;;;;;;;4.00;2.70;;;;;;;34.47;28.68;97644.77;106982;1249;96009;-78
2023/07/09 09:48:09;;;;;;;3.20;2.90;;;;;;;34.65;28.68;97644.41;106615;1253;98999;-81
2023/07/09 09:50:36;;;;;;;3.20;2.90;;;;;;;34.72;27.78;97640.81;106892;1250;95974;-81
2023/07/09 09:53:07;;;;;;;4.60;3.00;;;;;;;34.68;27.64;97642.70;107178;1248;97189;-84
2023/07/09 09:55:34;;;;;;;3.60;3.30;;;;;;;34.76;27.56;97646.20;106894;1251;99610;-81
2023/07/09 09:58:02;;;;;;;3.10;2.80;;;;;;;34.88;27.28;97645.73;107068;1250;100014;-79
2023/07/09 10:00:33;;;;;;;3.60;2.70;;;;;;;34.92;27.10;97641.71;106567;1253;99013;-83
2023/07/09 10:03:01;;;;;;;7.60;3.20;;;;;;;34.77;27.09;97641.35;106202;1251;97388;-78
2023/07/09 10:05:45;;;;;;;5.10;3.00;;;;;;;34.64;26.19;97644.79;106698;1253;95970;-80
2023/07/09 10:08:39;;;;;;;4.80;2.90;;;;;;;34.65;25.80;97644.24;109562;1250;99945;-78
2023/07/09 10:11:15;;;;;;;6.40;3.00;;;;;;;34.31;25.38;97644.10;109534;1250;100337;-81
2023/07/09 10:13:44;;;;;;;4.10;2.80;;;;;;;33.83;25.53;97640.29;109005;1255;98969;-82
2023/07/09 10:16:31;;;;;;;3.10;2.80;;;;;;;33.35;26.29;97638.80;107796;1255;95940;-79
2023/07/09 10:19:13;;;;;;;5.40;3.30;;;;;;;32.91;26.21;97639.90;108240;1256;95917;-80
2023/07/09 10:22:01;;;;;;;5.50;3.10;;;;;;;32.84;26.46;97635.38;107634;1250;99261;-80
2023/07/09 10:25:03;;;;;;;6.00;2.70;;;;;;;33.00;26.53;97629.64;106464;1250;99329;-78
2023/07/09 10:27:40;;;;;;;5.70;3.20;;;;;;;33.21;26.54;97625.60;106651;1262;99071;-81
2023/07/09 10:30:42;;;;;;;5.20;3.50;;;;;;;33.38;26.79;97623.23;106537;1253;95944;-81
2023/07/09 10:33:16;;;;;;;3.50;2.80;;;;;;;33.50;26.59;97624.61;107079;1247;95891;-85
2023/07/09 10:36:01;;;;;;;3.40;2.80;;;;;;;33.58;26.35;97621.17;106885;1251;99268;-79
2023/07/09 10:38:46;;;;;;;5.00;3.30;;;;;;;33.72;26.16;97620.86;106864;1250;100216;-82
2023/07/09 10:41:14;;;;;;;2.80;2.60;;;;;;;33.72;26.38;97616.30;106980;1250;98650;-83
2023/07/09 10:43:57;;;;;;;3.90;2.90;;;;;;;33.65;26.97;97608.66;106906;1250;96029;-80
2023/07/09 10:46:28;;;;;;;4.00;2.80;;;;;;;33.72;26.88;97605.91;106816;1250;95955;-80
2023/07/09 10:48:57;;;;;;;3.70;3.20;;;;;;;33.77;25.87;97610.52;106931;1257;100103;-80
2023/07/09 10:51:28;;;;;;;6.60;3.40;;;;;;;33.93;26.12;97614.98;107127;1250;100167;-80
2023/07/09 10:54:12;;;;;;;4.90;3.10;;;;;;;34.06;25.74;97618.85;107342;1248;98557;-78
2023/07/09 10:56:40;;;;;;;5.00;2.80;;;;;;;33.99;25.28;97619.62;107891;1241;97051;-78
2023/07/09 10:59:30;;;;;;;2.80;2.60;;;;;;;33.96;25.16;97613.38;107655;1242;96024;-80
2023/07/09 11:02:21;;;;;;;3.30;3.00;;;;;;;34.11;25.52;97607.30;107523;1249;99539;-77
2023/07/09 11:04:53;;;;;;;5.90;2.80;;;;;;;34.09;25.37;97609.02;107392;1241;99901;-77
2023/07/09 11:07:28;;;;;;;5.00;3.30;;;;;;;33.89;25.58;97607.84;108764;1241;98693;-77
2023/07/09 11:09:56;;;;;;;12.30;3.50;;;;;;;33.76;25.26;97602.02;108491;1241;96230;-79
2023/07/09 11:12:27;;;;;;;3.50;3.00;;;;;;;33.90;24.95;97603.55;107331;1244;95993;-78
2023/07/09 11:15:01;;;;;;;4.20;3.00;;;;;;;34.11;24.32;97603.29;107167;1250;99846;-80
2023/07/09 11:17:30;;;;;;;4.10;3.10;;;;;;;34.17;25.32;97597.35;107026;1244;100623;-79
2023/07/09 11:20:00;;;;;;;5.80;3.30;;;;;;;34.05;25.86;97596.91;106978;1258;98992;-79
2023/07/09 11:22:37;;;;;;;5.90;3.10;;;;;;;34.00;25.62;97598.12;107039;1245;96514;-79
2023/07/09 11:25:15;;;;;;;4.20;3.10;;;;;;;33.93;25.41;97600.02;106992;1248;97199;-78
2023/07/09 11:27:50;;;;;;;4.30;2.80;;;;;;;34.03;25.25;97599.23;107047;1246;99807;-77
2023/07/09 11:30:27;;;;;;;3.40;3.00;;;;;;;34.16;24.93;97600.37;107177;1260;100220;-77
2023/07/09 11:33:16;;;;;;;5.10;2.80;;;;;;;34.27;24.69;97599.16;107070;1249;98729;-80
2023/07/09 11:35:51;;;;;;;4.80;2.90;;;;;;;33.98;25.22;97600.14;106948;1245;96789;-79
2023/07/09 11:38:21;;;;;;;3.40;2.80;;;;;;;33.60;26.11;97596.12;106854;1248;96012;-78
2023/07/09 11:40:54;;;;;;;4.00;3.10;;;;;;;33.44;25.75;97600.15;106806;1254;100025;-78
2023/07/09 11:43:35;;;;;;;4.90;2.90;;;;;;;33.29;25.11;97600.50;107392;1241;100042;-79
2023/07/09 11:46:13;;;;;;;5.20;2.90;;;;;;;33.05;24.80;97593.20;107336;1245;98962;-80
2023/07/09 11:48:40;;;;;;;3.50;2.90;;;;;;;32.71;25.71;97593.88;106986;1249;95927;-78
2023/07/09 11:51:38;;;;;;;3.50;3.20;;;;;;;32.61;25.99;97592.90;106984;1250;96019;-77
2023/07/09 11:54:04;;;;;;;4.90;3.40;;;;;;;32.71;25.80;97592.63;107157;1248;99793;-78
2023/07/09 11:56:34;;;;;;;3.60;3.30;;;;;;;32.81;25.54;97588.46;107049;1242;96531;-80
2023/07/09 11:59:00;;;;;;;5.60;3.30;;;;;;;32.85;25.52;97592.59;107217;1242;98686;-81
2023/07/09 12:01:36;;;;;;;3.60;3.20;;;;;;;32.74;25.79;97597.00;107356;1240;95941;-76
2023/07/09 12:04:04;;;;;;;4.10;3.10;;;;;;;32.46;26.37;97596.34;107253;1246;96269;-82
2023/07/09 12:06:33;;;;;;;4.90;3.30;;;;;;;32.27;26.77;97590.52;107295;1244;99898;-79
2023/07/09 12:09:03;;;;;;;3.10;2.70;;;;;;;32.29;26.87;97591.45;107259;1247;101286;-78
2023/07/09 12:11:34;;;;;;;3.30;3.00;;;;;;;32.34;26.79;97590.38;107635;1245;97804;-78
2023/07/09 12:14:16;;;;;;;3.80;3.20;;;;;;;32.32;26.58;97584.64;107496;1239;97315;-77
2023/07/09 12:16:46;;;;;;;4.30;3.10;;;;;;;32.31;26.84;97577.27;107706;1244;95906;-78
2023/07/09 12:19:16;;;;;;;4.50;3.40;;;;;;;32.40;26.61;97570.92;106925;1250;99832;-78
2023/07/09 12:21:44;;;;;;;5.20;3.10;;;;;;;32.50;26.80;97574.77;107052;1251;100571;-80
2023/07/09 12:24:36;;;;;;;6.10;3.10;;;;;;;32.45;26.04;97578.27;107070;1249;97955;-78
2023/07/09 12:27:17;;;;;;;3.40;3.10;;;;;;;32.48;25.79;97575.08;106785;1252;97080;-77
2023/07/09 12:29:44;;;;;;;4.10;3.30;;;;;;;32.45;26.18;97571.58;106730;1253;95964;-78
2023/07/09 12:32:14;;;;;;;3.30;2.90;;;;;;;32.61;26.18;97574.21;107113;1245;97336;-77
2023/07/09 12:34:40;;;;;;;4.00;3.30;;;;;;;32.67;26.02;97571.93;110057;1250;100204;-77